Time;durP1;ratioP1;P1;durP2;ratioP2;P2;SDS_P1;SDS_P2;PMS_P1;PMS_P2;Temp;Humidity;BMP_temperature;BMP_pressure;BME280_temperature;BME280_humidity;BME280_pressure;Samples;Min_cycle;Max_cycle;Signal;HPM_P1;HPM_P2
2023/05/24 00:01:07;;;;;;;36.13;25.02;;;16.10;99.90;;;;;;5069633;28;20462;-79
2023/05/24 00:03:33;;;;;;;31.08;24.27;;;16.00;99.90;;;;;;5034633;28;20037;-79
2023/05/24 00:06:05;;;;;;;28.63;23.33;;;16.00;99.90;;;;;;5051339;28;20478;-79
2023/05/24 00:08:31;;;;;;;33.55;24.08;;;15.90;99.90;;;;;;5051389;28;20028;-79
2023/05/24 00:10:57;;;;;;;26.63;21.02;;;15.80;99.90;;;;;;5072645;28;20138;-79
2023/05/24 00:13:23;;;;;;;26.85;23.08;;;15.80;99.90;;;;;;5054584;28;20034;-78
2023/05/24 00:15:49;;;;;;;25.25;21.52;;;15.80;99.90;;;;;;5075964;28;20020;-79
2023/05/24 00:18:16;;;;;;;26.23;22.13;;;15.70;99.90;;;;;;5058023;28;20123;-79
2023/05/24 00:20:42;;;;;;;31.38;23.02;;;15.60;99.90;;;;;;5076092;28;20024;-79
2023/05/24 00:23:08;;;;;;;28.30;23.08;;;15.60;99.90;;;;;;5058041;28;20496;-79
2023/05/24 00:25:34;;;;;;;31.13;23.23;;;15.60;99.90;;;;;;5053145;28;20017;-79
2023/05/24 00:28:00;;;;;;;31.05;25.35;;;15.60;99.90;;;;;;5055918;28;20039;-79
2023/05/24 00:30:26;;;;;;;29.33;24.73;;;15.60;99.90;;;;;;5055778;28;20171;-79
2023/05/24 00:32:51;;;;;;;33.53;23.48;;;15.60;99.90;;;;;;5055750;28;20029;-78
2023/05/24 00:35:17;;;;;;;31.42;24.42;;;15.60;99.90;;;;;;5037862;28;20017;-78
2023/05/24 00:37:44;;;;;;;27.75;23.10;;;15.60;99.90;;;;;;5037738;28;20398;-78
2023/05/24 00:40:10;;;;;;;34.47;25.27;;;15.60;99.90;;;;;;5037866;28;20021;-78
2023/05/24 00:42:36;;;;;;;32.35;24.02;;;15.60;99.90;;;;;;5037599;28;20037;-79
2023/05/24 00:45:02;;;;;;;31.83;24.05;;;15.60;99.90;;;;;;5055598;28;20040;-79
2023/05/24 00:47:27;;;;;;;26.55;20.98;;;15.60;99.90;;;;;;5055480;28;20482;-78
2023/05/24 00:49:53;;;;;;;32.33;23.50;;;15.60;99.90;;;;;;5055668;28;20024;-78
2023/05/24 00:52:20;;;;;;;25.38;21.13;;;15.50;99.90;;;;;;5037664;28;20025;-78
2023/05/24 00:54:45;;;;;;;27.67;21.88;;;15.50;99.90;;;;;;5037724;28;20020;-78
2023/05/24 00:57:14;;;;;;;24.63;21.23;;;15.40;99.90;;;;;;5055465;28;20477;-78
2023/05/24 00:59:40;;;;;;;24.30;20.08;;;15.40;99.90;;;;;;5037566;28;20390;-80
2023/05/24 01:02:06;;;;;;;29.50;23.52;;;15.30;99.90;;;;;;5054883;28;20032;-79
2023/05/24 01:04:32;;;;;;;28.42;22.58;;;15.30;99.90;;;;;;5037345;28;20569;-79
2023/05/24 01:07:36;;;;;;;29.13;23.17;;;15.30;99.90;;;;;;5055242;28;20020;-79
2023/05/24 01:10:20;;;;;;;30.30;22.23;;;15.30;99.90;;;;;;5055248;28;20021;-79
2023/05/24 01:13:03;;;;;;;27.25;21.45;;;15.30;99.90;;;;;;5055178;28;20390;-79
2023/05/24 01:15:53;;;;;;;26.73;20.83;;;15.30;99.90;;;;;;5055120;28;20033;-80
2023/05/24 01:18:24;;;;;;;27.35;21.30;;;15.30;99.90;;;;;;5054912;28;20079;-79
2023/05/24 01:21:11;;;;;;;25.00;20.57;;;15.30;99.90;;;;;;5037126;28;20541;-79
2023/05/24 01:23:48;;;;;;;24.92;21.13;;;15.30;99.90;;;;;;5037019;28;20334;-80
2023/05/24 01:26:52;;;;;;;26.98;20.70;;;15.20;99.90;;;;;;5053934;28;20028;-79
2023/05/24 01:29:18;;;;;;;27.02;22.00;;;15.20;99.90;;;;;;5037073;28;20021;-80
2023/05/24 01:31:44;;;;;;;26.92;20.73;;;15.20;99.90;;;;;;5036786;28;20021;-79
2023/05/24 01:34:11;;;;;;;30.00;22.13;;;15.20;99.90;;;;;;5036881;28;20029;-79
2023/05/24 01:36:36;;;;;;;25.80;21.23;;;15.10;99.90;;;;;;5054595;28;20025;-79
2023/05/24 01:39:04;;;;;;;26.92;21.60;;;15.10;99.90;;;;;;5054607;28;20025;-79
2023/05/24 01:41:58;;;;;;;29.73;22.88;;;15.00;99.90;;;;;;5054429;28;20021;-79
2023/05/24 01:44:43;;;;;;;29.63;23.13;;;15.00;99.90;;;;;;5054479;28;20426;-80
2023/05/24 01:47:38;;;;;;;28.42;21.80;;;15.00;99.90;;;;;;5054369;28;20031;-79
2023/05/24 01:50:17;;;;;;;28.63;23.10;;;15.00;99.90;;;;;;5054545;28;20029;-80
2023/05/24 01:52:44;;;;;;;26.80;21.88;;;15.00;99.90;;;;;;5054499;28;20028;-79
2023/05/24 01:55:14;;;;;;;29.45;22.85;;;15.00;99.90;;;;;;5054416;28;20025;-79
2023/05/24 01:57:42;;;;;;;30.67;23.55;;;15.00;99.90;;;;;;5036459;28;20437;-80
2023/05/24 02:00:11;;;;;;;28.35;23.52;;;15.00;99.90;;;;;;5036371;28;20509;-80
2023/05/24 02:02:37;;;;;;;28.48;23.83;;;15.00;99.90;;;;;;5054023;28;20029;-79
2023/05/24 02:05:03;;;;;;;30.23;23.75;;;15.00;99.90;;;;;;5054181;28;20047;-80
2023/05/24 02:07:29;;;;;;;35.90;25.88;;;15.00;99.90;;;;;;5054092;28;20029;-80
2023/05/24 02:09:54;;;;;;;37.25;24.88;;;15.00;99.90;;;;;;5036246;28;20027;-81
2023/05/24 02:12:20;;;;;;;30.83;24.00;;;15.00;99.90;;;;;;5053996;28;20462;-80
2023/05/24 02:14:49;;;;;;;31.02;24.95;;;15.00;99.90;;;;;;5053976;28;20489;-80
2023/05/24 02:17:16;;;;;;;35.13;25.98;;;14.90;99.90;;;;;;5036027;28;20029;-80
2023/05/24 02:19:42;;;;;;;32.95;24.38;;;14.90;99.90;;;;;;5053877;28;20056;-80
2023/05/24 02:22:08;;;;;;;32.97;24.23;;;14.90;99.90;;;;;;5053797;28;20042;-81
2023/05/24 02:24:35;;;;;;;30.98;24.63;;;14.80;99.90;;;;;;5035932;28;20025;-80
2023/05/24 02:27:01;;;;;;;33.15;24.50;;;14.80;99.90;;;;;;5053685;28;20025;-81
2023/05/24 02:29:27;;;;;;;32.33;23.83;;;14.70;99.90;;;;;;5053647;28;20035;-80
2023/05/24 02:31:55;;;;;;;30.40;24.77;;;14.80;99.90;;;;;;5053901;28;20032;-80
2023/05/24 02:34:22;;;;;;;30.75;24.05;;;14.70;99.90;;;;;;5053682;28;20032;-80
2023/05/24 02:36:48;;;;;;;32.30;25.63;;;14.60;99.90;;;;;;5035473;28;20036;-80
2023/05/24 02:39:14;;;;;;;32.97;23.23;;;14.60;99.90;;;;;;5053615;28;20031;-80
2023/05/24 02:41:40;;;;;;;33.20;24.63;;;14.60;99.90;;;;;;5035468;28;20107;-79
2023/05/24 02:44:05;;;;;;;33.45;24.45;;;14.60;99.90;;;;;;5035581;28;20479;-80
2023/05/24 02:46:31;;;;;;;31.33;24.23;;;14.60;99.90;;;;;;5035503;28;20020;-79
2023/05/24 02:48:57;;;;;;;29.80;23.85;;;14.50;99.90;;;;;;5035546;28;20028;-79
2023/05/24 02:51:23;;;;;;;36.65;24.83;;;14.50;99.90;;;;;;5053244;28;20049;-79
2023/05/24 02:53:48;;;;;;;33.50;24.98;;;14.50;99.90;;;;;;5053311;28;20013;-79
2023/05/24 02:56:16;;;;;;;33.47;25.05;;;14.50;99.90;;;;;;5035329;28;20044;-79
2023/05/24 02:58:43;;;;;;;33.47;26.30;;;14.50;99.90;;;;;;5035382;28;20039;-79
2023/05/24 03:01:11;;;;;;;34.50;26.83;;;14.50;99.90;;;;;;5035347;28;20107;-80
2023/05/24 03:03:37;;;;;;;33.95;25.90;;;14.40;99.90;;;;;;5035224;28;20410;-79
2023/05/24 03:06:03;;;;;;;40.67;30.58;;;14.50;99.90;;;;;;5053191;28;20028;-80
2023/05/24 03:08:28;;;;;;;45.58;29.77;;;14.40;99.90;;;;;;5035128;28;20516;-79
2023/05/24 03:10:54;;;;;;;37.70;27.98;;;14.40;99.90;;;;;;5053213;28;20036;-79
2023/05/24 03:13:20;;;;;;;40.55;30.65;;;14.40;99.90;;;;;;5035247;28;20044;-79
2023/05/24 03:15:45;;;;;;;42.40;30.85;;;14.40;99.90;;;;;;5035192;28;20028;-79
2023/05/24 03:18:11;;;;;;;51.00;33.55;;;14.40;99.90;;;;;;5035076;28;20558;-79
2023/05/24 03:20:36;;;;;;;44.65;31.15;;;14.30;99.90;;;;;;5053104;28;20029;-79
2023/05/24 03:23:02;;;;;;;43.53;31.30;;;14.30;99.90;;;;;;5035075;28;20021;-79
2023/05/24 03:25:27;;;;;;;46.05;32.63;;;14.20;99.90;;;;;;5035152;28;20021;-79
2023/05/24 03:27:53;;;;;;;48.63;32.25;;;14.20;99.90;;;;;;5052975;28;20458;-79
2023/05/24 03:30:19;;;;;;;46.25;31.30;;;14.20;99.90;;;;;;5035013;28;20402;-79
2023/05/24 03:32:44;;;;;;;45.17;33.42;;;14.20;99.90;;;;;;5052864;28;20066;-79
2023/05/24 03:35:13;;;;;;;44.17;31.05;;;14.20;99.90;;;;;;5052931;28;20025;-79
2023/05/24 03:37:39;;;;;;;45.70;31.50;;;14.20;99.90;;;;;;5052925;28;20433;-79
2023/05/24 03:40:05;;;;;;;46.33;31.50;;;14.10;99.90;;;;;;5052817;28;20078;-79
2023/05/24 03:42:31;;;;;;;45.13;30.60;;;14.10;99.90;;;;;;5052707;28;20403;-78
2023/05/24 03:44:57;;;;;;;46.88;29.08;;;14.10;99.90;;;;;;5052773;28;20036;-79
2023/05/24 03:47:22;;;;;;;39.70;28.55;;;14.10;99.90;;;;;;5052701;28;20032;-79
2023/05/24 03:49:48;;;;;;;41.60;28.88;;;14.00;99.90;;;;;;5036944;28;20492;-78
2023/05/24 03:52:13;;;;;;;45.03;31.52;;;14.10;99.90;;;;;;5038802;28;20025;-79
2023/05/24 03:54:39;;;;;;;41.83;28.67;;;14.10;99.90;;;;;;5038821;28;20066;-79
2023/05/24 03:57:05;;;;;;;45.85;30.75;;;14.10;99.90;;;;;;5038651;28;20018;-79
2023/05/24 03:59:31;;;;;;;41.90;29.80;;;14.10;99.90;;;;;;5038555;28;20095;-79
2023/05/24 04:01:56;;;;;;;39.88;28.80;;;14.10;99.90;;;;;;5056380;28;20033;-78
2023/05/24 04:04:22;;;;;;;42.30;31.92;;;14.10;99.90;;;;;;5056484;28;20033;-79
2023/05/24 04:06:48;;;;;;;41.35;30.23;;;14.10;99.90;;;;;;5056281;28;20021;-79
2023/05/24 04:09:14;;;;;;;45.80;30.25;;;14.10;99.90;;;;;;5038502;28;20112;-78
2023/05/24 04:11:40;;;;;;;42.58;28.00;;;14.10;99.90;;;;;;5056305;28;20134;-79
2023/05/24 04:14:06;;;;;;;40.97;28.67;;;14.10;99.90;;;;;;5038368;28;20090;-80
2023/05/24 04:16:32;;;;;;;46.63;28.95;;;14.20;99.90;;;;;;5052787;28;20020;-79
2023/05/24 04:19:00;;;;;;;39.58;27.38;;;14.30;99.90;;;;;;5055355;28;20506;-80
2023/05/24 04:21:26;;;;;;;43.58;28.63;;;14.30;99.90;;;;;;5034794;28;20187;-79
2023/05/24 04:23:52;;;;;;;37.85;25.50;;;14.30;99.90;;;;;;5050412;28;20079;-78
2023/05/24 04:26:18;;;;;;;35.38;24.05;;;14.40;99.90;;;;;;5061015;28;20044;-80
2023/05/24 04:28:47;;;;;;;36.33;25.65;;;14.50;99.90;;;;;;5035230;28;20024;-79
2023/05/24 04:31:14;;;;;;;36.00;24.27;;;14.50;99.90;;;;;;5029993;28;20486;-79
2023/05/24 04:33:40;;;;;;;33.75;24.45;;;14.60;99.90;;;;;;5057043;28;20083;-79
2023/05/24 04:36:07;;;;;;;36.00;26.08;;;14.60;99.90;;;;;;5054923;28;20025;-79
2023/05/24 04:38:35;;;;;;;33.58;24.48;;;14.70;99.90;;;;;;5037240;28;20028;-79
2023/05/24 04:41:01;;;;;;;36.40;24.98;;;14.80;99.90;;;;;;5030949;28;20017;-79
2023/05/24 04:43:27;;;;;;;33.00;23.88;;;14.80;99.90;;;;;;5035647;28;20037;-79
2023/05/24 04:45:53;;;;;;;39.28;23.38;;;14.70;99.90;;;;;;5034408;28;20497;-79
2023/05/24 04:48:23;;;;;;;28.70;21.92;;;14.70;99.90;;;;;;5023328;28;20065;-79
2023/05/24 04:50:57;;;;;;;35.90;22.88;;;14.80;99.90;;;;;;5037452;28;20493;-79
2023/05/24 04:53:24;;;;;;;32.63;24.20;;;14.70;99.90;;;;;;5036586;28;20021;-79
2023/05/24 04:55:53;;;;;;;31.85;23.08;;;14.80;99.90;;;;;;5055022;28;20159;-79
2023/05/24 04:58:19;;;;;;;29.88;23.17;;;14.90;99.90;;;;;;5055250;28;20025;-79
2023/05/24 05:00:44;;;;;;;31.15;22.83;;;14.80;99.90;;;;;;5053680;28;20025;-79
2023/05/24 05:03:10;;;;;;;32.55;23.45;;;14.80;99.90;;;;;;5036993;28;20048;-79
2023/05/24 05:05:36;;;;;;;32.50;21.75;;;14.80;99.90;;;;;;5037509;28;20032;-79
2023/05/24 05:08:02;;;;;;;32.75;23.00;;;14.80;99.90;;;;;;5054649;28;20075;-79
2023/05/24 05:10:28;;;;;;;32.95;22.38;;;14.80;99.90;;;;;;5055365;28;20025;-79
2023/05/24 05:12:54;;;;;;;29.83;21.98;;;14.90;99.90;;;;;;5055112;28;20388;-79
2023/05/24 05:15:22;;;;;;;29.50;20.95;;;14.90;99.90;;;;;;5036388;28;20021;-79
2023/05/24 05:17:48;;;;;;;32.03;22.83;;;14.90;99.90;;;;;;5054596;28;20024;-79
2023/05/24 05:20:13;;;;;;;29.33;21.77;;;14.90;99.90;;;;;;5017383;28;20475;-79
2023/05/24 05:22:44;;;;;;;33.72;22.45;;;14.90;99.90;;;;;;5034499;28;20037;-79
2023/05/24 05:25:10;;;;;;;31.80;21.25;;;14.90;99.90;;;;;;5049941;28;20013;-79
2023/05/24 05:27:35;;;;;;;28.92;20.67;;;14.90;99.90;;;;;;5054886;28;20036;-79
2023/05/24 05:30:01;;;;;;;29.50;21.85;;;14.90;99.90;;;;;;5019128;28;20021;-79
2023/05/24 05:32:27;;;;;;;29.38;21.25;;;15.00;99.90;;;;;;5016291;28;20034;-79
2023/05/24 05:34:52;;;;;;;26.98;20.95;;;15.00;99.90;;;;;;5034466;28;20034;-79
2023/05/24 05:37:18;;;;;;;31.23;20.50;;;15.00;99.90;;;;;;5015880;28;20033;-78
2023/05/24 05:39:43;;;;;;;28.92;19.13;;;15.00;99.90;;;;;;5017088;28;20029;-80
2023/05/24 05:42:09;;;;;;;30.38;21.40;;;14.90;99.90;;;;;;5016496;28;20037;-78
2023/05/24 05:44:35;;;;;;;27.23;20.48;;;15.00;99.90;;;;;;5034659;28;20406;-78
2023/05/24 05:47:02;;;;;;;28.50;20.80;;;15.10;99.90;;;;;;5033409;28;20496;-79
2023/05/24 05:49:28;;;;;;;26.35;19.05;;;15.20;99.90;;;;;;5016577;28;20116;-79
2023/05/24 05:51:53;;;;;;;24.88;19.33;;;15.20;99.90;;;;;;5033608;28;20088;-79
2023/05/24 05:54:19;;;;;;;25.88;19.20;;;15.30;99.90;;;;;;5015560;28;20740;-79
2023/05/24 05:56:46;;;;;;;30.00;19.77;;;15.30;99.90;;;;;;5033389;28;20029;-80
2023/05/24 05:59:13;;;;;;;26.73;20.75;;;15.30;99.90;;;;;;5016642;28;20025;-78
2023/05/24 06:01:39;;;;;;;24.85;19.73;;;15.30;99.90;;;;;;5033969;28;20112;-79
2023/05/24 06:04:05;;;;;;;25.73;19.75;;;15.40;99.90;;;;;;5033810;28;20706;-80
2023/05/24 06:06:32;;;;;;;26.27;20.10;;;15.40;99.90;;;;;;5013873;28;20104;-79
2023/05/24 06:08:58;;;;;;;24.88;19.92;;;15.40;99.90;;;;;;5014364;28;20088;-79
2023/05/24 06:11:23;;;;;;;27.08;20.55;;;15.40;99.90;;;;;;5013294;28;20021;-80
2023/05/24 06:13:49;;;;;;;27.83;21.05;;;15.50;99.90;;;;;;5013363;28;20112;-80
2023/05/24 06:16:15;;;;;;;25.48;19.10;;;15.60;99.90;;;;;;5006111;28;20029;-80
2023/05/24 06:18:41;;;;;;;24.17;18.30;;;15.60;99.90;;;;;;5034441;28;20530;-80
2023/05/24 06:21:09;;;;;;;27.23;18.60;;;15.50;99.90;;;;;;5048912;28;20562;-81
2023/05/24 06:23:38;;;;;;;24.92;19.08;;;15.50;99.90;;;;;;5048429;28;20060;-80
2023/05/24 06:26:03;;;;;;;25.92;19.00;;;15.60;99.90;;;;;;5049876;28;20028;-80
2023/05/24 06:28:29;;;;;;;25.08;18.52;;;15.60;99.90;;;;;;5031988;28;20531;-80
2023/05/24 06:30:55;;;;;;;25.15;19.00;;;15.60;99.90;;;;;;5033254;28;20021;-81
2023/05/24 06:33:21;;;;;;;22.85;18.60;;;15.60;99.90;;;;;;5048670;28;20061;-80
2023/05/24 06:35:47;;;;;;;24.05;18.58;;;15.60;99.90;;;;;;5047564;28;20066;-81
2023/05/24 06:38:13;;;;;;;24.38;18.88;;;15.60;99.90;;;;;;5029621;28;20021;-80
2023/05/24 06:40:38;;;;;;;24.48;18.17;;;15.60;99.90;;;;;;5049345;28;20032;-80
2023/05/24 06:43:04;;;;;;;24.83;18.90;;;15.60;99.90;;;;;;5045205;28;20037;-80
2023/05/24 06:45:30;;;;;;;24.58;18.48;;;15.60;99.90;;;;;;5048312;28;20037;-80
2023/05/24 06:47:56;;;;;;;23.27;17.95;;;15.60;99.90;;;;;;5030512;28;20112;-80
2023/05/24 06:50:22;;;;;;;23.58;18.00;;;15.40;99.90;;;;;;5050467;28;20079;-80
2023/05/24 06:52:47;;;;;;;22.05;16.83;;;15.40;99.90;;;;;;5050988;28;20025;-80
2023/05/24 06:55:13;;;;;;;25.70;17.33;;;15.40;99.90;;;;;;5050810;28;20394;-80
2023/05/24 06:57:38;;;;;;;24.20;17.30;;;15.00;99.90;;;;;;5049971;28;20406;-80
2023/05/24 07:00:10;;;;;;;29.15;18.48;;;15.00;99.90;;;;;;5050689;28;20036;-80
2023/05/24 07:02:36;;;;;;;26.75;17.95;;;14.80;99.90;;;;;;5043935;28;20060;-80
2023/05/24 07:05:02;;;;;;;25.42;17.25;;;14.80;99.90;;;;;;5034143;28;20478;-81
2023/05/24 07:07:28;;;;;;;25.33;17.40;;;14.60;99.90;;;;;;5033277;28;20028;-81
2023/05/24 07:09:54;;;;;;;25.65;16.17;;;14.50;99.90;;;;;;5051636;28;20037;-80
2023/05/24 07:12:19;;;;;;;26.30;18.58;;;14.40;99.90;;;;;;5050624;28;20032;-81
2023/05/24 07:14:46;;;;;;;29.10;17.65;;;14.40;99.90;;;;;;5033391;28;20131;-81
2023/05/24 07:17:12;;;;;;;27.98;17.83;;;14.30;99.90;;;;;;5031193;28;20017;-81
2023/05/24 07:19:37;;;;;;;23.83;15.90;;;14.30;99.90;;;;;;5018420;28;20030;-80
2023/05/24 07:22:03;;;;;;;21.55;13.60;;;14.30;99.90;;;;;;5013737;28;20033;-81
2023/05/24 07:24:28;;;;;;;23.27;14.45;;;14.10;99.90;;;;;;5033468;28;20045;-81
2023/05/24 07:26:56;;;;;;;20.20;13.73;;;13.90;99.90;;;;;;5035903;28;20079;-80
2023/05/24 07:29:22;;;;;;;21.38;12.63;;;13.70;99.90;;;;;;5035910;28;20033;-81
2023/05/24 07:31:47;;;;;;;20.58;12.15;;;13.60;99.90;;;;;;5018207;28;20029;-81
2023/05/24 07:34:14;;;;;;;20.80;12.70;;;13.60;99.90;;;;;;5035946;28;20038;-81
2023/05/24 07:36:41;;;;;;;19.58;12.80;;;13.60;99.90;;;;;;5035512;28;20467;-82
2023/05/24 07:39:08;;;;;;;16.80;10.60;;;13.50;99.90;;;;;;5014928;28;20046;-81
2023/05/24 07:41:35;;;;;;;13.35;9.55;;;13.40;99.90;;;;;;5032514;28;20037;-81
2023/05/24 07:44:00;;;;;;;14.65;9.73;;;13.30;99.90;;;;;;5017444;28;20182;-81
2023/05/24 07:46:26;;;;;;;15.45;9.18;;;13.30;99.90;;;;;;5035226;28;20720;-81
2023/05/24 07:48:52;;;;;;;13.15;9.57;;;13.20;99.90;;;;;;5032801;28;20148;-81
2023/05/24 07:51:17;;;;;;;16.65;9.52;;;13.30;99.90;;;;;;5017087;28;20038;-81
2023/05/24 07:53:43;;;;;;;15.38;10.18;;;13.30;99.90;;;;;;5017975;28;20025;-81
2023/05/24 07:56:09;;;;;;;15.98;9.93;;;13.20;99.90;;;;;;5035176;28;20080;-81
2023/05/24 07:58:34;;;;;;;15.18;9.38;;;13.20;99.90;;;;;;5035635;28;20041;-80
2023/05/24 08:01:00;;;;;;;15.02;10.10;;;13.20;99.90;;;;;;5030541;28;20102;-81
2023/05/24 08:03:26;;;;;;;16.85;10.45;;;13.10;99.90;;;;;;5054496;28;20037;-82
2023/05/24 08:05:52;;;;;;;15.15;10.20;;;13.10;99.90;;;;;;5055551;28;20505;-81
2023/05/24 08:08:18;;;;;;;14.77;10.13;;;13.20;99.90;;;;;;5010538;28;20018;-79
2023/05/24 08:10:44;;;;;;;17.98;10.80;;;13.10;99.90;;;;;;4998650;28;20272;-78
2023/05/24 08:13:10;;;;;;;15.05;9.75;;;13.10;99.90;;;;;;5013686;28;20499;-79
2023/05/24 08:15:36;;;;;;;14.30;9.43;;;13.00;99.90;;;;;;5010610;28;20029;-77
2023/05/24 08:18:02;;;;;;;13.73;9.35;;;13.00;99.90;;;;;;5035115;28;20026;-78
2023/05/24 08:20:27;;;;;;;22.25;10.30;;;12.90;99.90;;;;;;5035788;28;20028;-79
2023/05/24 08:22:53;;;;;;;15.35;9.68;;;12.90;99.90;;;;;;5035747;28;20116;-79
2023/05/24 08:25:19;;;;;;;18.23;10.02;;;12.80;99.90;;;;;;5015781;28;20024;-79
2023/05/24 08:27:45;;;;;;;14.80;9.43;;;12.80;99.90;;;;;;5016878;28;20407;-79
2023/05/24 08:30:12;;;;;;;18.23;11.35;;;12.80;99.90;;;;;;5018298;28;20068;-79
2023/05/24 08:32:38;;;;;;;17.70;10.75;;;12.90;99.90;;;;;;5016808;28;20537;-78
2023/05/24 08:35:04;;;;;;;17.10;10.68;;;12.90;99.90;;;;;;5015999;28;20030;-79
2023/05/24 08:37:32;;;;;;;19.75;10.77;;;12.90;99.90;;;;;;5016252;28;20161;-78
2023/05/24 08:39:58;;;;;;;16.67;10.90;;;12.90;99.90;;;;;;5016191;28;20033;-78
2023/05/24 08:42:25;;;;;;;17.10;11.13;;;12.90;99.90;;;;;;5015400;28;20093;-79
2023/05/24 08:45:08;;;;;;;22.23;11.98;;;12.90;99.90;;;;;;5016070;28;20017;-78
2023/05/24 08:47:35;;;;;;;22.00;11.73;;;12.80;99.90;;;;;;5034870;28;20112;-79
2023/05/24 08:50:02;;;;;;;22.48;13.57;;;12.70;99.90;;;;;;5035926;28;20040;-78
2023/05/24 08:52:31;;;;;;;24.42;13.82;;;12.60;99.90;;;;;;5035698;28;20026;-78
2023/05/24 08:54:58;;;;;;;24.75;13.75;;;12.60;99.90;;;;;;5035812;28;20494;-79
2023/05/24 08:57:26;;;;;;;24.48;14.23;;;12.70;99.90;;;;;;5017315;28;20028;-80
2023/05/24 08:59:54;;;;;;;23.67;14.00;;;12.80;99.90;;;;;;5035679;28;20394;-81
2023/05/24 09:02:20;;;;;;;27.92;14.80;;;12.70;99.90;;;;;;5017675;28;20034;-80
2023/05/24 09:04:48;;;;;;;24.80;13.00;;;12.70;99.90;;;;;;5017777;28;20031;-79
2023/05/24 09:07:17;;;;;;;22.95;13.10;;;12.70;99.90;;;;;;5035625;28;20036;-80
2023/05/24 09:09:46;;;;;;;21.90;13.95;;;12.70;99.90;;;;;;5035447;28;20018;-81
2023/05/24 09:12:16;;;;;;;19.17;12.02;;;12.70;99.90;;;;;;5017136;28;20479;-80
2023/05/24 09:14:48;;;;;;;30.75;14.40;;;12.60;99.90;;;;;;5017540;28;20053;-80
2023/05/24 09:17:14;;;;;;;19.90;12.53;;;12.50;99.90;;;;;;5017616;28;20398;-80
2023/05/24 09:19:45;;;;;;;19.08;12.07;;;12.50;99.90;;;;;;5038614;28;20292;-81
2023/05/24 09:22:15;;;;;;;22.98;12.88;;;12.60;99.90;;;;;;5047628;28;20547;-80
2023/05/24 09:24:41;;;;;;;21.30;12.40;;;12.60;99.90;;;;;;5055223;28;20021;-79
2023/05/24 09:27:07;;;;;;;21.25;11.95;;;12.70;99.90;;;;;;5046568;28;20029;-79
2023/05/24 09:29:40;;;;;;;17.40;11.13;;;12.70;99.90;;;;;;5055182;28;20482;-79
2023/05/24 09:32:08;;;;;;;17.58;11.23;;;12.70;99.90;;;;;;5054993;28;20048;-79
2023/05/24 09:34:42;;;;;;;18.88;11.45;;;12.70;99.90;;;;;;5054984;28;20024;-79
2023/05/24 09:37:17;;;;;;;19.30;11.73;;;12.70;99.90;;;;;;5054941;28;20021;-79
2023/05/24 09:39:43;;;;;;;17.58;10.85;;;12.70;99.90;;;;;;5051721;28;20017;-79
2023/05/24 09:42:19;;;;;;;16.95;10.05;;;12.70;99.90;;;;;;5054045;28;20025;-79
2023/05/24 09:44:46;;;;;;;17.73;11.18;;;12.80;99.90;;;;;;5052256;28;20032;-79
2023/05/24 09:47:13;;;;;;;18.77;12.25;;;12.70;99.90;;;;;;5046724;28;20451;-79
2023/05/24 09:49:39;;;;;;;16.70;11.75;;;12.70;99.90;;;;;;5053357;28;20017;-79
2023/05/24 09:52:04;;;;;;;17.95;10.55;;;12.70;99.90;;;;;;5054573;28;20024;-79
2023/05/24 09:54:33;;;;;;;19.75;11.27;;;12.80;99.90;;;;;;5054557;28;20021;-79
2023/05/24 09:57:03;;;;;;;16.20;10.57;;;12.80;99.90;;;;;;5044710;28;20017;-80
2023/05/24 09:59:33;;;;;;;15.35;10.43;;;12.90;99.90;;;;;;5053213;28;20378;-79
2023/05/24 10:02:09;;;;;;;18.75;11.38;;;13.00;99.90;;;;;;5052991;28;20025;-79
2023/05/24 10:04:35;;;;;;;19.42;12.57;;;13.10;99.90;;;;;;5053216;28;20029;-79
2023/05/24 10:07:01;;;;;;;18.05;10.60;;;13.10;99.90;;;;;;5045376;28;20028;-79
2023/05/24 10:09:32;;;;;;;16.27;10.98;;;13.10;99.90;;;;;;5052863;28;20386;-80
2023/05/24 10:12:02;;;;;;;19.40;11.85;;;13.20;99.90;;;;;;5053732;28;20024;-79
2023/05/24 10:14:32;;;;;;;24.30;11.18;;;13.10;99.90;;;;;;5048986;28;20021;-79
2023/05/24 10:16:58;;;;;;;23.25;13.15;;;13.00;99.90;;;;;;5052819;28;20028;-79
2023/05/24 10:19:27;;;;;;;16.25;11.05;;;12.90;99.90;;;;;;5052859;28;20041;-79
2023/05/24 10:21:55;;;;;;;18.67;11.75;;;13.00;99.90;;;;;;5054092;28;20062;-79
2023/05/24 10:24:24;;;;;;;17.17;10.75;;;13.00;99.90;;;;;;5047674;28;20390;-79
2023/05/24 10:26:52;;;;;;;21.00;12.90;;;13.10;99.90;;;;;;5053331;28;20092;-80
2023/05/24 10:29:29;;;;;;;17.67;10.85;;;13.00;99.90;;;;;;5053997;28;20525;-79
2023/05/24 10:31:55;;;;;;;18.23;11.25;;;13.10;99.90;;;;;;5052275;28;20040;-79
2023/05/24 10:34:21;;;;;;;19.45;11.95;;;13.10;99.90;;;;;;5047766;28;20430;-79
2023/05/24 10:36:47;;;;;;;15.65;10.60;;;13.20;99.90;;;;;;5052434;28;20067;-80
2023/05/24 10:39:13;;;;;;;17.23;11.02;;;13.20;99.90;;;;;;5046624;28;20040;-79
2023/05/24 10:41:40;;;;;;;18.55;10.90;;;13.20;99.90;;;;;;5051964;28;20021;-79
2023/05/24 10:44:11;;;;;;;22.08;12.00;;;13.20;99.90;;;;;;5045460;28;20025;-79
2023/05/24 10:47:16;;;;;;;17.40;11.55;;;13.20;99.90;;;;;;5052376;28;20021;-79
2023/05/24 10:49:53;;;;;;;15.05;10.35;;;13.30;99.90;;;;;;5053536;28;20377;-79
2023/05/24 10:52:19;;;;;;;17.90;11.60;;;13.40;99.90;;;;;;5047094;28;20021;-79
2023/05/24 10:55:02;;;;;;;17.98;11.77;;;13.50;99.90;;;;;;5052187;28;20051;-79
2023/05/24 10:57:29;;;;;;;20.65;13.18;;;13.60;99.90;;;;;;5047640;28;20029;-79
2023/05/24 10:59:56;;;;;;;19.40;12.20;;;13.70;99.90;;;;;;5053451;28;20021;-79
2023/05/24 11:02:21;;;;;;;14.98;10.98;;;13.90;99.90;;;;;;5047168;28;20112;-79
2023/05/24 11:04:48;;;;;;;15.38;10.15;;;14.10;99.90;;;;;;5053292;28;20071;-79
2023/05/24 11:07:14;;;;;;;17.13;11.63;;;14.00;99.90;;;;;;5053419;28;20517;-79
2023/05/24 11:09:46;;;;;;;18.48;11.02;;;14.10;99.90;;;;;;5053416;28;20470;-79
2023/05/24 11:12:16;;;;;;;16.65;11.35;;;14.10;99.90;;;;;;5045559;28;20017;-79
2023/05/24 11:14:48;;;;;;;15.00;11.07;;;14.20;99.90;;;;;;5053348;28;20028;-79
2023/05/24 11:17:13;;;;;;;15.23;9.55;;;14.20;99.90;;;;;;5046220;28;20382;-79
2023/05/24 11:19:48;;;;;;;15.38;10.75;;;14.20;99.90;;;;;;5052985;28;20083;-79
2023/05/24 11:22:14;;;;;;;18.70;10.45;;;14.30;99.90;;;;;;5046050;28;20056;-80
2023/05/24 11:24:40;;;;;;;15.73;11.13;;;14.40;99.90;;;;;;5052187;28;20021;-80
2023/05/24 11:27:10;;;;;;;17.33;10.68;;;14.30;99.90;;;;;;5054572;28;20028;-80
2023/05/24 11:29:43;;;;;;;16.40;10.57;;;14.40;99.90;;;;;;5055165;28;20028;-80
2023/05/24 11:32:13;;;;;;;15.63;10.27;;;14.40;99.90;;;;;;5072955;28;20024;-80
2023/05/24 11:34:38;;;;;;;15.43;9.90;;;14.40;99.90;;;;;;5055108;28;20377;-79
2023/05/24 11:37:04;;;;;;;17.58;10.15;;;14.30;99.90;;;;;;5055011;28;20024;-79
2023/05/24 11:39:31;;;;;;;13.02;9.60;;;14.20;99.90;;;;;;5055108;28;20029;-79
2023/05/24 11:41:58;;;;;;;14.38;10.05;;;14.20;99.90;;;;;;5072360;28;20021;-81
2023/05/24 11:44:24;;;;;;;13.82;9.32;;;14.10;99.90;;;;;;5055027;28;20024;-79
2023/05/24 11:46:57;;;;;;;15.40;10.30;;;14.10;99.90;;;;;;5072975;28;20020;-79
2023/05/24 11:49:22;;;;;;;13.77;9.15;;;13.90;99.90;;;;;;5072903;28;20073;-79
2023/05/24 11:51:48;;;;;;;14.80;9.60;;;14.00;99.90;;;;;;5072943;28;20025;-80
2023/05/24 11:54:13;;;;;;;14.40;9.38;;;14.10;99.90;;;;;;5054908;28;20055;-79
2023/05/24 11:56:39;;;;;;;16.52;9.32;;;14.20;99.90;;;;;;5052947;28;20029;-80
2023/05/24 11:59:16;;;;;;;14.45;9.40;;;14.20;99.90;;;;;;5056298;28;20066;-79
2023/05/24 12:01:43;;;;;;;16.08;10.82;;;14.10;99.90;;;;;;5054759;28;20024;-79
2023/05/24 12:04:09;;;;;;;14.02;10.15;;;14.10;99.90;;;;;;5054483;28;20060;-80
2023/05/24 12:06:39;;;;;;;16.23;9.85;;;14.00;99.90;;;;;;5072755;28;20063;-80
2023/05/24 12:09:07;;;;;;;18.45;10.63;;;14.00;99.90;;;;;;5054897;28;20489;-80
2023/05/24 12:11:36;;;;;;;13.60;9.45;;;14.20;99.90;;;;;;5057932;28;20024;-80
2023/05/24 12:14:02;;;;;;;14.80;10.27;;;14.20;99.90;;;;;;5058454;28;20016;-80
2023/05/24 12:16:31;;;;;;;14.07;10.35;;;13.90;99.90;;;;;;5076338;28;20025;-80
2023/05/24 12:18:56;;;;;;;15.48;9.88;;;13.90;99.90;;;;;;5058493;28;20044;-80
2023/05/24 12:21:22;;;;;;;14.60;9.52;;;13.90;99.90;;;;;;5058358;28;20049;-80
2023/05/24 12:23:47;;;;;;;20.13;11.00;;;14.00;99.90;;;;;;5058260;28;20043;-80
2023/05/24 12:26:13;;;;;;;15.90;9.77;;;13.80;99.90;;;;;;5058273;28;20068;-80
2023/05/24 12:28:39;;;;;;;14.43;9.85;;;13.80;99.90;;;;;;5076155;28;20028;-79
2023/05/24 12:31:05;;;;;;;17.60;9.02;;;13.80;99.90;;;;;;5058173;28;20020;-80